Kaduna, Kaduna Airport (DNKA)

NameKaduna Airport
CityKaduna
CountryNigeria
ICAODNKA
IATAKAD
Altitude632 m
CoordinatesGoogle Map
Live Air TrafficLiveATC.net
METARDNKA 151600Z 27004KT 9999 FEW012 35/16 Q1013
2018-04-15 16:00:00 Wind: West (270°) 2.06 m/s - Visibility: > 10000 m - Temperature: 35 °C - Dew point: 16 °C - Humidity: 32.1% - Pressure: 1013 hPa
Statistics

The table below shows the detailed information of all flights to/from Kaduna, Kaduna Airport (DNKA).